DAL297 KLAX-KSFO
Flight info
| Callsign | DAL297 |
|---|---|
| Flight time | 0h 58m |
| Altitude | 40000 |
| Route | SUMMR2 STOKD SERFR SERFR4 |
| Aircraft | C25C/M-SDE2E3FGHRWXY/LB1 |
Departure
| Time | 2026-04-21 03:33 |
|---|---|
| Airport | Los Angeles International Airport (KLAX) |
Arrival
| Time | 2026-04-21 04:31 |
|---|---|
| Airport | San Francisco International Airport (KSFO) |
| Time | Latitude | Longitude | Altitude | Speed | Heading |
|---|---|---|---|---|---|
| 2026-04-21 03:20 | 33.94658 | -118.40075 | 110 ft | 0 kts | 277° |
| 2026-04-21 03:25 | 33.94657 | -118.40068 | 119 ft | 2 kts | 277° |
| 2026-04-21 03:25 | 33.94655 | -118.40048 | 119 ft | 2 kts | 277° |
| 2026-04-21 03:26 | 33.94653 | -118.40029 | 119 ft | 2 kts | 277° |
| 2026-04-21 03:26 | 33.94651 | -118.40011 | 119 ft | 0 kts | 277° |
| 2026-04-21 03:28 | 33.94660 | -118.40016 | 117 ft | 3 kts | 349° |
| 2026-04-21 03:28 | 33.94704 | -118.40013 | 119 ft | 10 kts | 2° |
| 2026-04-21 03:28 | 33.94797 | -118.40005 | 119 ft | 16 kts | 6° |
| 2026-04-21 03:29 | 33.94867 | -118.40077 | 119 ft | 13 kts | 337° |
| 2026-04-21 03:29 | 33.94922 | -118.40039 | 119 ft | 9 kts | 82° |
| 2026-04-21 03:29 | 33.94930 | -118.39968 | 119 ft | 8 kts | 79° |
| 2026-04-21 03:29 | 33.94957 | -118.39920 | 119 ft | 7 kts | 30° |
| 2026-04-21 03:30 | 33.94965 | -118.39916 | 119 ft | 0 kts | 24° |
| 2026-04-21 03:31 | 33.95042 | -118.39939 | 118 ft | 26 kts | 304° |
| 2026-04-21 03:31 | 33.95043 | -118.40015 | 118 ft | 0 kts | 257° |
| 2026-04-21 03:32 | 33.95005 | -118.40422 | 119 ft | 107 kts | 271° |
| 2026-04-21 03:32 | 33.94850 | -118.41715 | 245 ft | 194 kts | 261° |
| 2026-04-21 03:33 | 33.94623 | -118.43520 | 634 ft | 246 kts | 261° |
| 2026-04-21 03:33 | 33.94327 | -118.45854 | 1198 ft | 300 kts | 261° |
| 2026-04-21 03:33 | 33.94033 | -118.48209 | 3692 ft | 263 kts | 262° |
| 2026-04-21 03:33 | 33.93743 | -118.50630 | 4375 ft | 331 kts | 261° |
| 2026-04-21 03:34 | 33.93343 | -118.53603 | 4545 ft | 369 kts | 260° |
| 2026-04-21 03:34 | 33.92932 | -118.56502 | 4690 ft | 334 kts | 260° |
| 2026-04-21 03:34 | 33.92549 | -118.59146 | 4988 ft | 301 kts | 260° |
| 2026-04-21 03:34 | 33.92213 | -118.61451 | 5881 ft | 251 kts | 260° |
| 2026-04-21 03:35 | 33.91955 | -118.63366 | 6715 ft | 221 kts | 262° |
| 2026-04-21 03:35 | 33.91751 | -118.65130 | 7159 ft | 207 kts | 262° |
| 2026-04-21 03:35 | 33.91568 | -118.66810 | 7550 ft | 196 kts | 263° |
| 2026-04-21 03:35 | 33.91429 | -118.68403 | 7888 ft | 190 kts | 265° |
| 2026-04-21 03:36 | 33.91309 | -118.69943 | 8121 ft | 189 kts | 265° |
| 2026-04-21 03:36 | 33.91168 | -118.71524 | 8502 ft | 176 kts | 271° |
| 2026-04-21 03:36 | 33.91484 | -118.72949 | 8513 ft | 188 kts | 282° |
| 2026-04-21 03:36 | 33.91668 | -118.74724 | 8018 ft | 221 kts | 273° |
| 2026-04-21 03:37 | 33.91707 | -118.76479 | 8554 ft | 204 kts | 270° |
| 2026-04-21 03:37 | 33.91703 | -118.78181 | 8750 ft | 209 kts | 270° |
| 2026-04-21 03:37 | 33.91707 | -118.80051 | 9151 ft | 222 kts | 271° |
| 2026-04-21 03:37 | 33.91896 | -118.81803 | 10260 ft | 208 kts | 281° |
| 2026-04-21 03:38 | 33.92212 | -118.83549 | 10852 ft | 219 kts | 282° |
| 2026-04-21 03:38 | 33.92612 | -118.85437 | 11405 ft | 246 kts | 285° |
| 2026-04-21 03:38 | 33.93074 | -118.87451 | 12404 ft | 253 kts | 285° |
| 2026-04-21 03:38 | 33.93534 | -118.89621 | 12831 ft | 284 kts | 284° |
| 2026-04-21 03:39 | 33.94030 | -118.92034 | 13458 ft | 299 kts | 283° |
| 2026-04-21 03:39 | 33.94506 | -118.94326 | 15259 ft | 268 kts | 286° |
| 2026-04-21 03:39 | 33.95062 | -118.96513 | 15907 ft | 290 kts | 288° |
| 2026-04-21 03:39 | 33.95683 | -118.98971 | 15973 ft | 324 kts | 287° |
| 2026-04-21 03:40 | 33.96377 | -119.01658 | 16302 ft | 344 kts | 287° |
| 2026-04-21 03:40 | 33.97088 | -119.04367 | 17494 ft | 331 kts | 287° |
| 2026-04-21 03:40 | 33.97748 | -119.06876 | 19259 ft | 303 kts | 287° |
| 2026-04-21 03:40 | 33.98353 | -119.09354 | 19956 ft | 318 kts | 285° |
| 2026-04-21 03:41 | 33.98959 | -119.12026 | 20212 ft | 342 kts | 284° |
| 2026-04-21 03:41 | 33.99566 | -119.14856 | 20816 ft | 352 kts | 283° |
| 2026-04-21 03:41 | 34.00156 | -119.17698 | 21851 ft | 347 kts | 288° |
| 2026-04-21 03:41 | 34.01277 | -119.20234 | 22852 ft | 345 kts | 305° |
| 2026-04-21 03:42 | 34.02743 | -119.22536 | 23686 ft | 345 kts | 309° |
| 2026-04-21 03:42 | 34.04367 | -119.24618 | 24667 ft | 342 kts | 319° |
| 2026-04-21 03:42 | 34.06215 | -119.26518 | 25034 ft | 357 kts | 317° |
| 2026-04-21 03:42 | 34.08093 | -119.28584 | 25208 ft | 375 kts | 317° |
| 2026-04-21 03:43 | 34.10032 | -119.30786 | 25369 ft | 391 kts | 316° |
| 2026-04-21 03:43 | 34.12018 | -119.33118 | 25531 ft | 404 kts | 315° |
| 2026-04-21 03:43 | 34.14031 | -119.35528 | 25693 ft | 410 kts | 315° |
| 2026-04-21 03:43 | 34.16058 | -119.37976 | 25853 ft | 413 kts | 315° |
| 2026-04-21 03:44 | 34.18093 | -119.40440 | 26012 ft | 416 kts | 315° |
| 2026-04-21 03:44 | 34.20141 | -119.42922 | 26167 ft | 418 kts | 315° |
| 2026-04-21 03:44 | 34.21508 | -119.44576 | 26270 ft | 419 kts | 315° |
| 2026-04-21 03:44 | 34.23572 | -119.47074 | 26424 ft | 421 kts | 315° |
| 2026-04-21 03:45 | 34.25644 | -119.49582 | 26577 ft | 422 kts | 315° |
| 2026-04-21 03:45 | 34.27726 | -119.52104 | 26730 ft | 423 kts | 315° |
| 2026-04-21 03:45 | 34.29807 | -119.54625 | 26882 ft | 424 kts | 315° |
| 2026-04-21 03:45 | 34.31893 | -119.57152 | 27033 ft | 425 kts | 315° |
| 2026-04-21 03:46 | 34.33981 | -119.59679 | 27183 ft | 425 kts | 315° |
| 2026-04-21 03:46 | 34.36071 | -119.62210 | 27334 ft | 425 kts | 315° |
| 2026-04-21 03:46 | 34.38164 | -119.64745 | 27484 ft | 425 kts | 315° |
| 2026-04-21 03:46 | 34.40254 | -119.67278 | 27631 ft | 426 kts | 315° |
| 2026-04-21 03:47 | 34.42345 | -119.69810 | 27783 ft | 426 kts | 315° |
| 2026-04-21 03:47 | 34.44442 | -119.72348 | 27935 ft | 426 kts | 315° |
| 2026-04-21 03:47 | 34.46541 | -119.74888 | 28082 ft | 426 kts | 315° |
| 2026-04-21 03:47 | 34.48634 | -119.77421 | 28230 ft | 426 kts | 315° |
| 2026-04-21 03:48 | 34.50705 | -119.79928 | 28376 ft | 426 kts | 315° |
| 2026-04-21 03:48 | 34.52807 | -119.82471 | 28522 ft | 427 kts | 315° |
| 2026-04-21 03:48 | 34.54909 | -119.85012 | 28674 ft | 427 kts | 315° |
| 2026-04-21 03:48 | 34.57013 | -119.87557 | 28822 ft | 427 kts | 315° |
| 2026-04-21 03:49 | 34.59114 | -119.90101 | 28983 ft | 426 kts | 315° |
| 2026-04-21 03:49 | 34.61223 | -119.92654 | 29122 ft | 426 kts | 315° |
| 2026-04-21 03:49 | 34.63325 | -119.95200 | 29271 ft | 426 kts | 315° |
| 2026-04-21 03:49 | 34.65424 | -119.97739 | 29420 ft | 426 kts | 315° |
| 2026-04-21 03:50 | 34.67524 | -120.00280 | 29568 ft | 426 kts | 315° |
| 2026-04-21 03:50 | 34.69625 | -120.02820 | 29717 ft | 426 kts | 315° |
| 2026-04-21 03:50 | 34.71726 | -120.05359 | 29866 ft | 425 kts | 315° |
| 2026-04-21 03:50 | 34.73827 | -120.07897 | 30014 ft | 425 kts | 315° |
| 2026-04-21 03:51 | 34.75924 | -120.10431 | 30229 ft | 423 kts | 315° |
| 2026-04-21 03:51 | 34.77978 | -120.12915 | 30498 ft | 420 kts | 315° |
| 2026-04-21 03:51 | 34.80043 | -120.15414 | 30769 ft | 418 kts | 315° |
| 2026-04-21 03:51 | 34.82099 | -120.17901 | 31040 ft | 415 kts | 315° |
| 2026-04-21 03:52 | 34.84144 | -120.20373 | 31311 ft | 413 kts | 315° |
| 2026-04-21 03:52 | 34.86181 | -120.22832 | 31582 ft | 411 kts | 315° |
| 2026-04-21 03:52 | 34.88205 | -120.25276 | 31852 ft | 409 kts | 315° |
| 2026-04-21 03:52 | 34.90218 | -120.27715 | 32210 ft | 405 kts | 315° |
| 2026-04-21 03:53 | 34.92200 | -120.30128 | 32604 ft | 401 kts | 315° |
| 2026-04-21 03:53 | 34.94159 | -120.32515 | 32997 ft | 396 kts | 315° |
| 2026-04-21 03:53 | 34.96096 | -120.34874 | 33384 ft | 392 kts | 315° |
| 2026-04-21 03:53 | 34.98015 | -120.37204 | 33772 ft | 387 kts | 315° |
| 2026-04-21 03:54 | 34.99940 | -120.39490 | 34168 ft | 383 kts | 316° |
| 2026-04-21 03:54 | 35.01866 | -120.41711 | 34556 ft | 379 kts | 316° |
| 2026-04-21 03:54 | 35.03795 | -120.43900 | 34947 ft | 376 kts | 317° |
| 2026-04-21 03:54 | 35.05718 | -120.46031 | 35335 ft | 372 kts | 318° |
| 2026-04-21 03:55 | 35.07667 | -120.48090 | 35725 ft | 368 kts | 319° |
| 2026-04-21 03:55 | 35.09619 | -120.50091 | 36111 ft | 364 kts | 320° |
| 2026-04-21 03:55 | 35.11532 | -120.52029 | 36491 ft | 360 kts | 320° |
| 2026-04-21 03:55 | 35.13453 | -120.53972 | 36876 ft | 357 kts | 320° |
| 2026-04-21 03:56 | 35.15381 | -120.55925 | 37268 ft | 353 kts | 320° |
| 2026-04-21 03:56 | 35.17262 | -120.57827 | 37652 ft | 349 kts | 320° |
| 2026-04-21 03:56 | 35.19126 | -120.59710 | 38036 ft | 346 kts | 320° |
| 2026-04-21 03:56 | 35.20972 | -120.61574 | 38426 ft | 342 kts | 320° |
| 2026-04-21 03:57 | 35.22775 | -120.63395 | 38799 ft | 339 kts | 320° |
| 2026-04-21 03:57 | 35.24583 | -120.65222 | 39179 ft | 335 kts | 320° |
| 2026-04-21 03:57 | 35.26370 | -120.67029 | 39564 ft | 332 kts | 320° |
| 2026-04-21 03:57 | 35.28145 | -120.68823 | 39854 ft | 332 kts | 320° |
| 2026-04-21 03:58 | 35.31788 | -120.72504 | 39922 ft | 348 kts | 320° |
| 2026-04-21 03:58 | 35.35663 | -120.76284 | 39927 ft | 363 kts | 322° |
| 2026-04-21 03:59 | 35.39751 | -120.80137 | 39927 ft | 378 kts | 322° |
| 2026-04-21 04:00 | 35.46161 | -120.86175 | 39929 ft | 396 kts | 322° |
| 2026-04-21 04:00 | 35.50563 | -120.90320 | 39926 ft | 406 kts | 322° |
| 2026-04-21 04:01 | 35.55082 | -120.94578 | 39929 ft | 413 kts | 322° |
| 2026-04-21 04:01 | 35.59686 | -120.98917 | 39929 ft | 419 kts | 322° |
| 2026-04-21 04:02 | 35.64345 | -121.03307 | 39926 ft | 424 kts | 322° |
| 2026-04-21 04:02 | 35.69045 | -121.07738 | 39927 ft | 427 kts | 322° |
| 2026-04-21 04:03 | 35.73778 | -121.12198 | 39925 ft | 429 kts | 322° |
| 2026-04-21 04:03 | 35.78504 | -121.16653 | 39825 ft | 431 kts | 322° |
| 2026-04-21 04:03 | 35.80908 | -121.18905 | 38480 ft | 440 kts | 322° |
| 2026-04-21 04:04 | 35.83413 | -121.21229 | 36702 ft | 459 kts | 323° |
| 2026-04-21 04:04 | 35.85992 | -121.23615 | 35362 ft | 465 kts | 323° |
| 2026-04-21 04:04 | 35.88556 | -121.25957 | 34885 ft | 448 kts | 325° |
| 2026-04-21 04:04 | 35.91286 | -121.27656 | 34311 ft | 435 kts | 341° |
| 2026-04-21 04:05 | 35.94189 | -121.28696 | 33399 ft | 433 kts | 346° |
| 2026-04-21 04:05 | 35.97090 | -121.29458 | 32925 ft | 420 kts | 349° |
| 2026-04-21 04:05 | 35.99839 | -121.30444 | 32610 ft | 404 kts | 338° |
| 2026-04-21 04:05 | 36.02299 | -121.32094 | 31788 ft | 403 kts | 326° |
| 2026-04-21 04:06 | 36.04567 | -121.34032 | 31163 ft | 400 kts | 323° |
| 2026-04-21 04:06 | 36.06791 | -121.36069 | 30644 ft | 393 kts | 322° |
| 2026-04-21 04:06 | 36.08954 | -121.38122 | 30024 ft | 391 kts | 322° |
| 2026-04-21 04:06 | 36.11099 | -121.40195 | 29333 ft | 390 kts | 321° |
| 2026-04-21 04:07 | 36.13230 | -121.42266 | 28671 ft | 389 kts | 321° |
| 2026-04-21 04:07 | 36.15363 | -121.44343 | 27790 ft | 393 kts | 321° |
| 2026-04-21 04:07 | 36.17516 | -121.46443 | 27094 ft | 392 kts | 321° |
| 2026-04-21 04:07 | 36.19630 | -121.48507 | 26725 ft | 382 kts | 321° |
| 2026-04-21 04:08 | 36.21662 | -121.50488 | 26499 ft | 370 kts | 322° |
| 2026-04-21 04:08 | 36.23723 | -121.52294 | 26302 ft | 358 kts | 328° |
| 2026-04-21 04:08 | 36.26039 | -121.53487 | 25422 ft | 366 kts | 341° |
| 2026-04-21 04:08 | 36.28503 | -121.54390 | 24707 ft | 370 kts | 343° |
| 2026-04-21 04:09 | 36.30945 | -121.55323 | 24290 ft | 363 kts | 340° |
| 2026-04-21 04:09 | 36.33179 | -121.56691 | 23953 ft | 355 kts | 329° |
| 2026-04-21 04:09 | 36.35245 | -121.58331 | 23568 ft | 350 kts | 325° |
| 2026-04-21 04:09 | 36.37220 | -121.60083 | 23115 ft | 348 kts | 323° |
| 2026-04-21 04:10 | 36.39140 | -121.61881 | 22844 ft | 342 kts | 322° |
| 2026-04-21 04:10 | 36.41009 | -121.63671 | 22442 ft | 340 kts | 322° |
| 2026-04-21 04:10 | 36.42891 | -121.65445 | 22048 ft | 338 kts | 322° |
| 2026-04-21 04:10 | 36.44754 | -121.67225 | 21593 ft | 338 kts | 322° |
| 2026-04-21 04:11 | 36.46618 | -121.69014 | 21090 ft | 339 kts | 322° |
| 2026-04-21 04:11 | 36.48479 | -121.70793 | 20748 ft | 335 kts | 322° |
| 2026-04-21 04:11 | 36.50279 | -121.72525 | 20608 ft | 326 kts | 322° |
| 2026-04-21 04:11 | 36.52071 | -121.74229 | 20340 ft | 322 kts | 324° |
| 2026-04-21 04:12 | 36.53918 | -121.75824 | 19913 ft | 324 kts | 325° |
| 2026-04-21 04:12 | 36.55791 | -121.77419 | 19424 ft | 327 kts | 326° |
| 2026-04-21 04:12 | 36.57669 | -121.79019 | 19047 ft | 326 kts | 325° |
| 2026-04-21 04:12 | 36.59511 | -121.80597 | 19073 ft | 311 kts | 325° |
| 2026-04-21 04:13 | 36.61164 | -121.82018 | 19922 ft | 272 kts | 325° |
| 2026-04-21 04:13 | 36.62753 | -121.83357 | 19405 ft | 286 kts | 326° |
| 2026-04-21 04:13 | 36.64442 | -121.84779 | 19149 ft | 291 kts | 325° |
| 2026-04-21 04:13 | 36.66065 | -121.86154 | 19412 ft | 275 kts | 325° |
| 2026-04-21 04:14 | 36.67645 | -121.87508 | 19236 ft | 277 kts | 325° |
| 2026-04-21 04:14 | 36.69265 | -121.88883 | 19039 ft | 279 kts | 327° |
| 2026-04-21 04:14 | 36.70908 | -121.90099 | 18992 ft | 277 kts | 329° |
| 2026-04-21 04:14 | 36.72590 | -121.91300 | 18675 ft | 283 kts | 330° |
| 2026-04-21 04:15 | 36.74356 | -121.92366 | 18652 ft | 279 kts | 341° |
| 2026-04-21 04:15 | 36.76279 | -121.92930 | 17668 ft | 304 kts | 352° |
| 2026-04-21 04:15 | 36.78494 | -121.93064 | 16683 ft | 326 kts | 346° |
| 2026-04-21 04:15 | 36.80515 | -121.93787 | 17555 ft | 280 kts | 342° |
| 2026-04-21 04:16 | 36.82310 | -121.94539 | 17689 ft | 272 kts | 341° |
| 2026-04-21 04:16 | 36.84173 | -121.95332 | 16855 ft | 294 kts | 341° |
| 2026-04-21 04:16 | 36.86260 | -121.95947 | 16126 ft | 313 kts | 351° |
| 2026-04-21 04:16 | 36.88399 | -121.96253 | 16048 ft | 304 kts | 354° |
| 2026-04-21 04:17 | 36.90474 | -121.96444 | 15980 ft | 297 kts | 356° |
| 2026-04-21 04:17 | 36.92502 | -121.96369 | 16032 ft | 286 kts | 11° |
| 2026-04-21 04:17 | 36.94407 | -121.95519 | 15422 ft | 300 kts | 24° |
| 2026-04-21 04:17 | 36.96320 | -121.94306 | 14936 ft | 305 kts | 28° |
| 2026-04-21 04:18 | 36.98124 | -121.93386 | 15703 ft | 268 kts | 16° |
| 2026-04-21 04:18 | 36.99895 | -121.92887 | 16037 ft | 251 kts | 9° |
| 2026-04-21 04:18 | 37.01613 | -121.92545 | 15947 ft | 255 kts | 6° |
| 2026-04-21 04:18 | 37.03408 | -121.92500 | 15651 ft | 264 kts | 348° |
| 2026-04-21 04:19 | 37.05207 | -121.93365 | 14793 ft | 291 kts | 335° |
| 2026-04-21 04:19 | 37.07033 | -121.94477 | 14541 ft | 292 kts | 332° |
| 2026-04-21 04:19 | 37.08838 | -121.95603 | 14427 ft | 288 kts | 334° |
| 2026-04-21 04:19 | 37.10668 | -121.96673 | 14091 ft | 292 kts | 335° |
| 2026-04-21 04:20 | 37.12516 | -121.97770 | 13906 ft | 291 kts | 334° |
| 2026-04-21 04:20 | 37.14290 | -121.98842 | 14132 ft | 275 kts | 334° |
| 2026-04-21 04:20 | 37.16004 | -121.99887 | 13941 ft | 278 kts | 334° |
| 2026-04-21 04:20 | 37.17796 | -122.00985 | 13365 ft | 293 kts | 334° |
| 2026-04-21 04:21 | 37.19649 | -122.02120 | 13013 ft | 297 kts | 334° |
| 2026-04-21 04:21 | 37.21503 | -122.03258 | 12800 ft | 296 kts | 334° |
| 2026-04-21 04:21 | 37.23343 | -122.04386 | 12656 ft | 292 kts | 334° |
| 2026-04-21 04:21 | 37.25174 | -122.05508 | 12266 ft | 297 kts | 334° |
| 2026-04-21 04:22 | 37.27047 | -122.06651 | 11623 ft | 309 kts | 334° |
| 2026-04-21 04:22 | 37.29019 | -122.07829 | 10951 ft | 318 kts | 334° |
| 2026-04-21 04:22 | 37.30992 | -122.09022 | 10875 ft | 306 kts | 334° |
| 2026-04-21 04:22 | 37.32959 | -122.10112 | 9883 ft | 321 kts | 338° |
| 2026-04-21 04:23 | 37.35231 | -122.10583 | 8755 ft | 333 kts | 356° |
| 2026-04-21 04:23 | 37.37241 | -122.10633 | 9268 ft | 248 kts | 360° |
| 2026-04-21 04:23 | 37.38797 | -122.10615 | 9072 ft | 197 kts | 0° |
| 2026-04-21 04:23 | 37.40094 | -122.10595 | 8387 ft | 186 kts | 1° |
| 2026-04-21 04:24 | 37.41346 | -122.10569 | 8085 ft | 165 kts | 355° |
| 2026-04-21 04:24 | 37.42313 | -122.11124 | 7953 ft | 142 kts | 326° |
| 2026-04-21 04:24 | 37.43066 | -122.11815 | 7777 ft | 131 kts | 324° |
| 2026-04-21 04:24 | 37.43899 | -122.12620 | 6731 ft | 173 kts | 321° |
| 2026-04-21 04:25 | 37.44801 | -122.13444 | 6546 ft | 152 kts | 341° |
| 2026-04-21 04:25 | 37.45791 | -122.13885 | 6029 ft | 155 kts | 340° |
| 2026-04-21 04:25 | 37.46882 | -122.14349 | 5278 ft | 168 kts | 341° |
| 2026-04-21 04:25 | 37.47948 | -122.14825 | 4823 ft | 160 kts | 340° |
| 2026-04-21 04:26 | 37.48900 | -122.15324 | 4935 ft | 133 kts | 339° |
| 2026-04-21 04:26 | 37.49792 | -122.15807 | 4637 ft | 149 kts | 333° |
| 2026-04-21 04:26 | 37.50746 | -122.16515 | 4192 ft | 165 kts | 328° |
| 2026-04-21 04:26 | 37.51712 | -122.17332 | 3818 ft | 170 kts | 325° |
| 2026-04-21 04:27 | 37.52662 | -122.18172 | 3618 ft | 163 kts | 324° |
| 2026-04-21 04:27 | 37.53590 | -122.19037 | 3380 ft | 161 kts | 323° |
| 2026-04-21 04:27 | 37.54427 | -122.19854 | 3383 ft | 148 kts | 320° |
| 2026-04-21 04:27 | 37.55094 | -122.20856 | 3145 ft | 153 kts | 302° |
| 2026-04-21 04:28 | 37.55607 | -122.22023 | 3019 ft | 151 kts | 298° |
| 2026-04-21 04:28 | 37.56146 | -122.23239 | 2644 ft | 162 kts | 299° |
| 2026-04-21 04:28 | 37.56696 | -122.24503 | 2264 ft | 170 kts | 298° |
| 2026-04-21 04:28 | 37.57253 | -122.25738 | 2259 ft | 155 kts | 300° |
| 2026-04-21 04:29 | 37.57433 | -122.27033 | 2066 ft | 155 kts | 282° |
| 2026-04-21 04:29 | 37.58111 | -122.28104 | 1820 ft | 161 kts | 316° |
| 2026-04-21 04:29 | 37.58858 | -122.29110 | 1850 ft | 151 kts | 312° |
| 2026-04-21 04:29 | 37.59309 | -122.30160 | 1785 ft | 133 kts | 292° |
| 2026-04-21 04:30 | 37.59663 | -122.31282 | 1378 ft | 141 kts | 294° |
| 2026-04-21 04:30 | 37.60021 | -122.32432 | 1504 ft | 139 kts | 293° |
| 2026-04-21 04:30 | 37.60440 | -122.33525 | 1101 ft | 141 kts | 295° |
| 2026-04-21 04:30 | 37.60869 | -122.34607 | 483 ft | 130 kts | 298° |
| 2026-04-21 04:31 | 37.61265 | -122.35559 | 167 ft | 111 kts | 299° |
| 2026-04-21 04:31 | 37.61504 | -122.36097 | 64 ft | 89 kts | 314° |
| 2026-04-21 04:31 | 37.61721 | -122.36554 | 14 ft | 47 kts | 300° |
| 2026-04-21 04:31 | 37.61808 | -122.36788 | 12 ft | 9 kts | 294° |
| 2026-04-21 04:32 | 37.61829 | -122.36836 | 11 ft | 12 kts | 298° |
| 2026-04-21 04:32 | 37.61901 | -122.36970 | 11 ft | 25 kts | 297° |
| 2026-04-21 04:32 | 37.61990 | -122.37216 | 10 ft | 36 kts | 298° |
| 2026-04-21 04:32 | 37.62102 | -122.37496 | 10 ft | 32 kts | 296° |
| 2026-04-21 04:33 | 37.62184 | -122.37732 | 13 ft | 27 kts | 297° |
| 2026-04-21 04:33 | 37.62220 | -122.37947 | 16 ft | 23 kts | 274° |
| 2026-04-21 04:33 | 37.62231 | -122.38128 | 17 ft | 9 kts | 271° |
| 2026-04-21 04:33 | 37.62231 | -122.38131 | 17 ft | 0 kts | 266° |
| 2026-04-21 04:34 | 37.62230 | -122.38150 | 17 ft | 5 kts | 269° |
| 2026-04-21 04:34 | 37.62226 | -122.38212 | 15 ft | 10 kts | 263° |
| 2026-04-21 04:35 | 37.62182 | -122.38298 | 14 ft | 13 kts | 209° |
| 2026-04-21 04:35 | 37.62156 | -122.38312 | 14 ft | 7 kts | 201° |
| 2026-04-21 04:35 | 37.62118 | -122.38327 | 14 ft | 8 kts | 195° |
| 2026-04-21 04:35 | 37.62051 | -122.38383 | 14 ft | 15 kts | 262° |
| 2026-04-21 04:36 | 37.62109 | -122.38536 | 12 ft | 24 kts | 298° |
| 2026-04-21 04:36 | 37.62186 | -122.38720 | 7 ft | 23 kts | 300° |
| 2026-04-21 04:36 | 37.62260 | -122.38898 | 6 ft | 22 kts | 296° |
| 2026-04-21 04:36 | 37.62236 | -122.39066 | 8 ft | 19 kts | 252° |
| 2026-04-21 04:37 | 37.62148 | -122.39162 | 8 ft | 17 kts | 213° |
| 2026-04-21 04:37 | 37.62049 | -122.39224 | 8 ft | 14 kts | 211° |
| 2026-04-21 04:37 | 37.61972 | -122.39228 | 9 ft | 11 kts | 131° |
| 2026-04-21 04:37 | 37.61926 | -122.39225 | 10 ft | 5 kts | 213° |
| 2026-04-21 04:38 | 37.61899 | -122.39248 | 10 ft | 5 kts | 209° |
| 2026-04-21 04:38 | 37.61878 | -122.39260 | 10 ft | 0 kts | 208° |
| 2026-04-21 04:38 | 37.61874 | -122.39263 | 10 ft | 0 kts | 213° |